sensor_id;sensor_type;location;lat;lon;timestamp;P1;durP1;ratioP1;P2;durP2;ratioP2
8177;SDS011;4130;48.740;9.132;2023-04-24T00:00:48;0.30;;;0.30;;
8177;SDS011;4130;48.740;9.132;2023-04-24T00:03:16;0.20;;;0.20;;
8177;SDS011;4130;48.740;9.132;2023-04-24T00:05:45;0.10;;;0.10;;
8177;SDS011;4130;48.740;9.132;2023-04-24T00:08:14;0.57;;;0.37;;
8177;SDS011;4130;48.740;9.132;2023-04-24T00:10:40;0.10;;;0.10;;
8177;SDS011;4130;48.740;9.132;2023-04-24T00:13:07;0.40;;;0.40;;
8177;SDS011;4130;48.740;9.132;2023-04-24T00:15:34;0.30;;;0.30;;
8177;SDS011;4130;48.740;9.132;2023-04-24T00:18:01;0.10;;;0.10;;
8177;SDS011;4130;48.740;9.132;2023-04-24T00:20:28;0.40;;;0.20;;
8177;SDS011;4130;48.740;9.132;2023-04-24T00:22:57;0.43;;;0.30;;
8177;SDS011;4130;48.740;9.132;2023-04-24T00:25:25;0.30;;;0.30;;
8177;SDS011;4130;48.740;9.132;2023-04-24T00:27:52;0.20;;;0.20;;
8177;SDS011;4130;48.740;9.132;2023-04-24T00:30:19;0.33;;;0.33;;
8177;SDS011;4130;48.740;9.132;2023-04-24T00:32:46;0.10;;;0.10;;
8177;SDS011;4130;48.740;9.132;2023-04-24T00:35:12;0.13;;;0.13;;
8177;SDS011;4130;48.740;9.132;2023-04-24T00:37:39;0.10;;;0.10;;
8177;SDS011;4130;48.740;9.132;2023-04-24T00:40:07;0.30;;;0.20;;
8177;SDS011;4130;48.740;9.132;2023-04-24T00:42:36;0.50;;;0.50;;
8177;SDS011;4130;48.740;9.132;2023-04-24T00:45:05;0.40;;;0.40;;
8177;SDS011;4130;48.740;9.132;2023-04-24T00:47:32;0.10;;;0.10;;
8177;SDS011;4130;48.740;9.132;2023-04-24T00:50:00;0.10;;;0.10;;
8177;SDS011;4130;48.740;9.132;2023-04-24T00:52:28;0.30;;;0.30;;
8177;SDS011;4130;48.740;9.132;2023-04-24T00:54:56;0.53;;;0.40;;
8177;SDS011;4130;48.740;9.132;2023-04-24T00:57:22;0.20;;;0.20;;
8177;SDS011;4130;48.740;9.132;2023-04-24T00:59:51;0.13;;;0.13;;
8177;SDS011;4130;48.740;9.132;2023-04-24T01:02:19;0.20;;;0.20;;
8177;SDS011;4130;48.740;9.132;2023-04-24T01:04:47;0.10;;;0.10;;
8177;SDS011;4130;48.740;9.132;2023-04-24T01:07:16;0.30;;;0.20;;
8177;SDS011;4130;48.740;9.132;2023-04-24T01:09:46;0.20;;;0.20;;
8177;SDS011;4130;48.740;9.132;2023-04-24T01:12:15;0.40;;;0.27;;
8177;SDS011;4130;48.740;9.132;2023-04-24T01:14:43;0.23;;;0.23;;
8177;SDS011;4130;48.740;9.132;2023-04-24T01:17:11;0.20;;;0.20;;
8177;SDS011;4130;48.740;9.132;2023-04-24T01:19:38;0.20;;;0.20;;
8177;SDS011;4130;48.740;9.132;2023-04-24T01:22:08;0.43;;;0.17;;
8177;SDS011;4130;48.740;9.132;2023-04-24T01:24:36;0.23;;;0.20;;
8177;SDS011;4130;48.740;9.132;2023-04-24T01:27:04;0.23;;;0.23;;
8177;SDS011;4130;48.740;9.132;2023-04-24T01:29:31;0.20;;;0.20;;
8177;SDS011;4130;48.740;9.132;2023-04-24T01:31:58;0.30;;;0.30;;
8177;SDS011;4130;48.740;9.132;2023-04-24T01:34:25;0.40;;;0.20;;
8177;SDS011;4130;48.740;9.132;2023-04-24T01:36:52;0.13;;;0.13;;
8177;SDS011;4130;48.740;9.132;2023-04-24T01:39:22;0.20;;;0.20;;
8177;SDS011;4130;48.740;9.132;2023-04-24T01:41:50;0.30;;;0.30;;
8177;SDS011;4130;48.740;9.132;2023-04-24T01:44:17;0.20;;;0.20;;
8177;SDS011;4130;48.740;9.132;2023-04-24T01:46:44;0.63;;;0.20;;
8177;SDS011;4130;48.740;9.132;2023-04-24T01:49:11;0.30;;;0.30;;
8177;SDS011;4130;48.740;9.132;2023-04-24T01:51:38;0.73;;;0.33;;
8177;SDS011;4130;48.740;9.132;2023-04-24T01:54:04;0.20;;;0.20;;
8177;SDS011;4130;48.740;9.132;2023-04-24T01:56:33;0.60;;;0.30;;
8177;SDS011;4130;48.740;9.132;2023-04-24T01:59:00;0.20;;;0.20;;
8177;SDS011;4130;48.740;9.132;2023-04-24T02:01:32;1.20;;;0.30;;
8177;SDS011;4130;48.740;9.132;2023-04-24T02:04:02;0.20;;;0.20;;
8177;SDS011;4130;48.740;9.132;2023-04-24T02:06:28;0.20;;;0.20;;
8177;SDS011;4130;48.740;9.132;2023-04-24T02:08:56;0.30;;;0.30;;
8177;SDS011;4130;48.740;9.132;2023-04-24T02:11:23;0.10;;;0.10;;
8177;SDS011;4130;48.740;9.132;2023-04-24T02:13:51;1.50;;;0.33;;
8177;SDS011;4130;48.740;9.132;2023-04-24T02:16:17;0.10;;;0.10;;
8177;SDS011;4130;48.740;9.132;2023-04-24T02:18:44;0.20;;;0.10;;
8177;SDS011;4130;48.740;9.132;2023-04-24T02:21:11;0.00;;;0.00;;
8177;SDS011;4130;48.740;9.132;2023-04-24T02:23:38;0.87;;;0.20;;
8177;SDS011;4130;48.740;9.132;2023-04-24T02:26:04;0.97;;;0.20;;
8177;SDS011;4130;48.740;9.132;2023-04-24T02:28:32;2.00;;;0.23;;
8177;SDS011;4130;48.740;9.132;2023-04-24T02:31:00;0.13;;;0.13;;
8177;SDS011;4130;48.740;9.132;2023-04-24T02:33:26;0.20;;;0.20;;
8177;SDS011;4130;48.740;9.132;2023-04-24T02:35:53;0.20;;;0.20;;
8177;SDS011;4130;48.740;9.132;2023-04-24T02:38:20;0.20;;;0.20;;
8177;SDS011;4130;48.740;9.132;2023-04-24T02:40:47;0.10;;;0.10;;
8177;SDS011;4130;48.740;9.132;2023-04-24T02:43:13;0.00;;;0.00;;
8177;SDS011;4130;48.740;9.132;2023-04-24T02:45:40;0.07;;;0.07;;
8177;SDS011;4130;48.740;9.132;2023-04-24T02:48:08;0.30;;;0.30;;
8177;SDS011;4130;48.740;9.132;2023-04-24T02:50:35;0.37;;;0.30;;
8177;SDS011;4130;48.740;9.132;2023-04-24T02:53:01;0.00;;;0.00;;
8177;SDS011;4130;48.740;9.132;2023-04-24T02:55:28;0.20;;;0.20;;
8177;SDS011;4130;48.740;9.132;2023-04-24T02:57:55;0.20;;;0.20;;
8177;SDS011;4130;48.740;9.132;2023-04-24T03:00:22;0.87;;;0.37;;
8177;SDS011;4130;48.740;9.132;2023-04-24T03:02:49;0.23;;;0.23;;
8177;SDS011;4130;48.740;9.132;2023-04-24T03:05:17;0.90;;;0.37;;
8177;SDS011;4130;48.740;9.132;2023-04-24T03:07:44;0.17;;;0.17;;
8177;SDS011;4130;48.740;9.132;2023-04-24T03:10:11;0.17;;;0.17;;
8177;SDS011;4130;48.740;9.132;2023-04-24T03:12:38;0.67;;;0.20;;
8177;SDS011;4130;48.740;9.132;2023-04-24T03:15:05;0.20;;;0.20;;
8177;SDS011;4130;48.740;9.132;2023-04-24T03:17:32;0.30;;;0.30;;
8177;SDS011;4130;48.740;9.132;2023-04-24T03:20:00;0.20;;;0.20;;
8177;SDS011;4130;48.740;9.132;2023-04-24T03:22:28;0.10;;;0.10;;
8177;SDS011;4130;48.740;9.132;2023-04-24T03:24:55;0.40;;;0.20;;
8177;SDS011;4130;48.740;9.132;2023-04-24T03:27:21;0.20;;;0.20;;
8177;SDS011;4130;48.740;9.132;2023-04-24T03:29:48;0.40;;;0.20;;
8177;SDS011;4130;48.740;9.132;2023-04-24T03:32:18;0.20;;;0.20;;
8177;SDS011;4130;48.740;9.132;2023-04-24T03:34:45;0.10;;;0.10;;
8177;SDS011;4130;48.740;9.132;2023-04-24T03:37:12;0.10;;;0.10;;
8177;SDS011;4130;48.740;9.132;2023-04-24T03:39:40;0.20;;;0.20;;
8177;SDS011;4130;48.740;9.132;2023-04-24T03:42:06;0.20;;;0.20;;
8177;SDS011;4130;48.740;9.132;2023-04-24T03:44:34;0.20;;;0.20;;
8177;SDS011;4130;48.740;9.132;2023-04-24T03:47:01;0.03;;;0.03;;
8177;SDS011;4130;48.740;9.132;2023-04-24T03:49:27;0.20;;;0.20;;
8177;SDS011;4130;48.740;9.132;2023-04-24T03:51:54;0.00;;;0.00;;
8177;SDS011;4130;48.740;9.132;2023-04-24T03:54:21;0.10;;;0.10;;
8177;SDS011;4130;48.740;9.132;2023-04-24T03:56:49;0.03;;;0.03;;
8177;SDS011;4130;48.740;9.132;2023-04-24T03:59:16;0.30;;;0.13;;
8177;SDS011;4130;48.740;9.132;2023-04-24T04:01:42;0.10;;;0.10;;
8177;SDS011;4130;48.740;9.132;2023-04-24T04:04:10;0.00;;;0.00;;
8177;SDS011;4130;48.740;9.132;2023-04-24T04:06:37;0.10;;;0.10;;
8177;SDS011;4130;48.740;9.132;2023-04-24T04:09:04;0.00;;;0.00;;
8177;SDS011;4130;48.740;9.132;2023-04-24T04:11:30;0.00;;;0.00;;
8177;SDS011;4130;48.740;9.132;2023-04-24T04:13:58;0.07;;;0.07;;
8177;SDS011;4130;48.740;9.132;2023-04-24T04:16:25;0.17;;;0.13;;
8177;SDS011;4130;48.740;9.132;2023-04-24T04:18:52;0.10;;;0.10;;
8177;SDS011;4130;48.740;9.132;2023-04-24T04:21:18;0.20;;;0.20;;
8177;SDS011;4130;48.740;9.132;2023-04-24T04:23:45;0.63;;;0.20;;
8177;SDS011;4130;48.740;9.132;2023-04-24T04:26:13;0.20;;;0.20;;
8177;SDS011;4130;48.740;9.132;2023-04-24T04:28:39;0.50;;;0.27;;
8177;SDS011;4130;48.740;9.132;2023-04-24T04:31:08;0.63;;;0.30;;
8177;SDS011;4130;48.740;9.132;2023-04-24T04:33:34;0.20;;;0.20;;
8177;SDS011;4130;48.740;9.132;2023-04-24T04:36:03;1.10;;;0.57;;
8177;SDS011;4130;48.740;9.132;2023-04-24T04:38:30;0.10;;;0.10;;
8177;SDS011;4130;48.740;9.132;2023-04-24T04:40:56;0.30;;;0.30;;
8177;SDS011;4130;48.740;9.132;2023-04-24T04:43:23;0.10;;;0.10;;
8177;SDS011;4130;48.740;9.132;2023-04-24T04:45:51;0.40;;;0.40;;
8177;SDS011;4130;48.740;9.132;2023-04-24T04:48:21;0.33;;;0.33;;
8177;SDS011;4130;48.740;9.132;2023-04-24T04:50:47;0.30;;;0.30;;
8177;SDS011;4130;48.740;9.132;2023-04-24T04:53:14;0.23;;;0.23;;
8177;SDS011;4130;48.740;9.132;2023-04-24T04:55:41;0.17;;;0.17;;
8177;SDS011;4130;48.740;9.132;2023-04-24T04:58:08;0.80;;;0.80;;
8177;SDS011;4130;48.740;9.132;2023-04-24T05:00:34;1.20;;;0.77;;
8177;SDS011;4130;48.740;9.132;2023-04-24T05:03:02;0.37;;;0.37;;
8177;SDS011;4130;48.740;9.132;2023-04-24T05:05:31;0.43;;;0.40;;
8177;SDS011;4130;48.740;9.132;2023-04-24T05:07:58;0.50;;;0.37;;
8177;SDS011;4130;48.740;9.132;2023-04-24T05:10:25;0.30;;;0.30;;
8177;SDS011;4130;48.740;9.132;2023-04-24T05:12:51;0.37;;;0.37;;
8177;SDS011;4130;48.740;9.132;2023-04-24T05:15:18;0.30;;;0.30;;
8177;SDS011;4130;48.740;9.132;2023-04-24T05:17:45;0.37;;;0.33;;
8177;SDS011;4130;48.740;9.132;2023-04-24T05:20:11;0.30;;;0.30;;
8177;SDS011;4130;48.740;9.132;2023-04-24T05:22:41;0.77;;;0.40;;
8177;SDS011;4130;48.740;9.132;2023-04-24T05:25:08;0.30;;;0.30;;
8177;SDS011;4130;48.740;9.132;2023-04-24T05:27:35;3.73;;;0.77;;
8177;SDS011;4130;48.740;9.132;2023-04-24T05:30:01;0.43;;;0.43;;
8177;SDS011;4130;48.740;9.132;2023-04-24T05:32:29;0.33;;;0.33;;
8177;SDS011;4130;48.740;9.132;2023-04-24T05:34:56;0.40;;;0.40;;
8177;SDS011;4130;48.740;9.132;2023-04-24T05:37:23;0.40;;;0.40;;
8177;SDS011;4130;48.740;9.132;2023-04-24T05:39:51;0.30;;;0.30;;
8177;SDS011;4130;48.740;9.132;2023-04-24T05:42:18;0.73;;;0.30;;
8177;SDS011;4130;48.740;9.132;2023-04-24T05:44:44;0.57;;;0.50;;
8177;SDS011;4130;48.740;9.132;2023-04-24T05:47:11;0.40;;;0.40;;
8177;SDS011;4130;48.740;9.132;2023-04-24T05:49:38;0.37;;;0.37;;
8177;SDS011;4130;48.740;9.132;2023-04-24T05:52:05;0.50;;;0.50;;
8177;SDS011;4130;48.740;9.132;2023-04-24T05:54:33;0.50;;;0.50;;
8177;SDS011;4130;48.740;9.132;2023-04-24T05:57:02;0.40;;;0.40;;
8177;SDS011;4130;48.740;9.132;2023-04-24T05:59:32;0.50;;;0.50;;
8177;SDS011;4130;48.740;9.132;2023-04-24T06:01:59;1.67;;;0.47;;
8177;SDS011;4130;48.740;9.132;2023-04-24T06:04:26;1.07;;;0.60;;
8177;SDS011;4130;48.740;9.132;2023-04-24T06:06:52;0.67;;;0.67;;
8177;SDS011;4130;48.740;9.132;2023-04-24T06:09:21;0.63;;;0.63;;
8177;SDS011;4130;48.740;9.132;2023-04-24T06:11:49;0.60;;;0.60;;
8177;SDS011;4130;48.740;9.132;2023-04-24T06:14:19;0.40;;;0.40;;
8177;SDS011;4130;48.740;9.132;2023-04-24T06:16:46;0.70;;;0.70;;
8177;SDS011;4130;48.740;9.132;2023-04-24T06:19:12;0.50;;;0.50;;
8177;SDS011;4130;48.740;9.132;2023-04-24T06:21:39;2.43;;;0.50;;
8177;SDS011;4130;48.740;9.132;2023-04-24T06:24:06;0.50;;;0.50;;
8177;SDS011;4130;48.740;9.132;2023-04-24T06:26:33;0.30;;;0.30;;
8177;SDS011;4130;48.740;9.132;2023-04-24T06:28:59;0.70;;;0.70;;
8177;SDS011;4130;48.740;9.132;2023-04-24T06:31:28;0.90;;;0.90;;
8177;SDS011;4130;48.740;9.132;2023-04-24T06:33:54;0.63;;;0.63;;
8177;SDS011;4130;48.740;9.132;2023-04-24T06:36:21;0.80;;;0.80;;
8177;SDS011;4130;48.740;9.132;2023-04-24T06:38:48;1.67;;;1.43;;
8177;SDS011;4130;48.740;9.132;2023-04-24T06:41:15;0.97;;;0.97;;
8177;SDS011;4130;48.740;9.132;2023-04-24T06:43:42;0.77;;;0.73;;
8177;SDS011;4130;48.740;9.132;2023-04-24T06:46:09;0.90;;;0.83;;
8177;SDS011;4130;48.740;9.132;2023-04-24T06:48:38;1.10;;;1.00;;
8177;SDS011;4130;48.740;9.132;2023-04-24T06:51:05;0.90;;;0.90;;
8177;SDS011;4130;48.740;9.132;2023-04-24T06:53:32;9.60;;;1.20;;
8177;SDS011;4130;48.740;9.132;2023-04-24T06:55:58;0.90;;;0.80;;
8177;SDS011;4130;48.740;9.132;2023-04-24T06:58:25;3.30;;;1.00;;
8177;SDS011;4130;48.740;9.132;2023-04-24T07:00:52;2.13;;;1.00;;
8177;SDS011;4130;48.740;9.132;2023-04-24T07:03:19;0.70;;;0.70;;
8177;SDS011;4130;48.740;9.132;2023-04-24T07:05:47;1.30;;;1.20;;
8177;SDS011;4130;48.740;9.132;2023-04-24T07:08:15;0.70;;;0.70;;
8177;SDS011;4130;48.740;9.132;2023-04-24T07:10:42;0.60;;;0.60;;
8177;SDS011;4130;48.740;9.132;2023-04-24T07:13:09;0.80;;;0.80;;
8177;SDS011;4130;48.740;9.132;2023-04-24T07:15:36;0.70;;;0.70;;
8177;SDS011;4130;48.740;9.132;2023-04-24T07:18:03;0.77;;;0.77;;
8177;SDS011;4130;48.740;9.132;2023-04-24T07:20:30;0.70;;;0.70;;
8177;SDS011;4130;48.740;9.132;2023-04-24T07:22:59;4.33;;;1.30;;
8177;SDS011;4130;48.740;9.132;2023-04-24T07:25:26;0.67;;;0.67;;
8177;SDS011;4130;48.740;9.132;2023-04-24T07:27:53;1.97;;;1.20;;
8177;SDS011;4130;48.740;9.132;2023-04-24T07:30:19;0.70;;;0.70;;
8177;SDS011;4130;48.740;9.132;2023-04-24T07:32:46;0.70;;;0.70;;
8177;SDS011;4130;48.740;9.132;2023-04-24T07:35:13;2.70;;;0.80;;
8177;SDS011;4130;48.740;9.132;2023-04-24T07:37:40;0.70;;;0.70;;
8177;SDS011;4130;48.740;9.132;2023-04-24T07:40:12;0.67;;;0.67;;
8177;SDS011;4130;48.740;9.132;2023-04-24T07:42:38;0.63;;;0.63;;
8177;SDS011;4130;48.740;9.132;2023-04-24T07:45:06;1.10;;;0.60;;
8177;SDS011;4130;48.740;9.132;2023-04-24T07:47:33;0.33;;;0.33;;
8177;SDS011;4130;48.740;9.132;2023-04-24T07:50:01;0.50;;;0.50;;
8177;SDS011;4130;48.740;9.132;2023-04-24T07:52:28;0.40;;;0.40;;
8177;SDS011;4130;48.740;9.132;2023-04-24T07:54:55;0.80;;;0.80;;
8177;SDS011;4130;48.740;9.132;2023-04-24T07:57:26;0.67;;;0.53;;
8177;SDS011;4130;48.740;9.132;2023-04-24T07:59:53;0.40;;;0.40;;
8177;SDS011;4130;48.740;9.132;2023-04-24T08:02:20;0.50;;;0.50;;
8177;SDS011;4130;48.740;9.132;2023-04-24T08:04:51;1.23;;;0.90;;
8177;SDS011;4130;48.740;9.132;2023-04-24T08:07:18;0.50;;;0.50;;
8177;SDS011;4130;48.740;9.132;2023-04-24T08:09:44;0.60;;;0.60;;
8177;SDS011;4130;48.740;9.132;2023-04-24T08:12:11;0.43;;;0.43;;
8177;SDS011;4130;48.740;9.132;2023-04-24T08:14:39;0.70;;;0.70;;
8177;SDS011;4130;48.740;9.132;2023-04-24T08:17:06;0.40;;;0.40;;
8177;SDS011;4130;48.740;9.132;2023-04-24T08:19:33;1.20;;;0.60;;
8177;SDS011;4130;48.740;9.132;2023-04-24T08:21:59;0.43;;;0.43;;
8177;SDS011;4130;48.740;9.132;2023-04-24T08:24:26;0.50;;;0.50;;
8177;SDS011;4130;48.740;9.132;2023-04-24T08:26:53;1.60;;;0.90;;
8177;SDS011;4130;48.740;9.132;2023-04-24T08:29:21;0.70;;;0.60;;
8177;SDS011;4130;48.740;9.132;2023-04-24T08:31:49;0.77;;;0.77;;
8177;SDS011;4130;48.740;9.132;2023-04-24T08:34:16;0.70;;;0.70;;
8177;SDS011;4130;48.740;9.132;2023-04-24T08:36:43;0.70;;;0.70;;
8177;SDS011;4130;48.740;9.132;2023-04-24T08:39:10;0.80;;;0.80;;
8177;SDS011;4130;48.740;9.132;2023-04-24T08:41:36;0.53;;;0.53;;
8177;SDS011;4130;48.740;9.132;2023-04-24T08:44:04;0.70;;;0.50;;
8177;SDS011;4130;48.740;9.132;2023-04-24T08:46:31;1.20;;;1.10;;
8177;SDS011;4130;48.740;9.132;2023-04-24T08:49:00;0.43;;;0.43;;
8177;SDS011;4130;48.740;9.132;2023-04-24T08:51:27;0.90;;;0.63;;
8177;SDS011;4130;48.740;9.132;2023-04-24T08:53:55;0.63;;;0.63;;
8177;SDS011;4130;48.740;9.132;2023-04-24T08:56:23;0.67;;;0.63;;
8177;SDS011;4130;48.740;9.132;2023-04-24T08:58:51;0.60;;;0.60;;
8177;SDS011;4130;48.740;9.132;2023-04-24T09:01:20;0.60;;;0.60;;
8177;SDS011;4130;48.740;9.132;2023-04-24T09:03:47;0.47;;;0.47;;
8177;SDS011;4130;48.740;9.132;2023-04-24T09:06:17;0.67;;;0.67;;
8177;SDS011;4130;48.740;9.132;2023-04-24T09:08:44;0.57;;;0.57;;
8177;SDS011;4130;48.740;9.132;2023-04-24T09:11:14;0.60;;;0.60;;
8177;SDS011;4130;48.740;9.132;2023-04-24T09:13:42;1.53;;;0.37;;
8177;SDS011;4130;48.740;9.132;2023-04-24T09:16:09;1.33;;;0.60;;
8177;SDS011;4130;48.740;9.132;2023-04-24T09:18:36;0.60;;;0.60;;
8177;SDS011;4130;48.740;9.132;2023-04-24T09:21:03;0.40;;;0.40;;
8177;SDS011;4130;48.740;9.132;2023-04-24T09:23:34;0.73;;;0.60;;
8177;SDS011;4130;48.740;9.132;2023-04-24T09:26:02;0.70;;;0.70;;
8177;SDS011;4130;48.740;9.132;2023-04-24T09:28:31;0.50;;;0.50;;
8177;SDS011;4130;48.740;9.132;2023-04-24T09:31:04;0.50;;;0.50;;
8177;SDS011;4130;48.740;9.132;2023-04-24T09:33:33;0.40;;;0.40;;
8177;SDS011;4130;48.740;9.132;2023-04-24T09:36:00;0.50;;;0.50;;
8177;SDS011;4130;48.740;9.132;2023-04-24T09:38:32;0.55;;;0.55;;
8177;SDS011;4130;48.740;9.132;2023-04-24T09:41:02;0.40;;;0.40;;
8177;SDS011;4130;48.740;9.132;2023-04-24T09:43:30;0.30;;;0.30;;
8177;SDS011;4130;48.740;9.132;2023-04-24T09:45:58;0.75;;;0.75;;
8177;SDS011;4130;48.740;9.132;2023-04-24T09:48:32;0.75;;;0.75;;
8177;SDS011;4130;48.740;9.132;2023-04-24T09:51:00;0.37;;;0.37;;
8177;SDS011;4130;48.740;9.132;2023-04-24T09:53:28;0.47;;;0.47;;
8177;SDS011;4130;48.740;9.132;2023-04-24T09:55:56;0.40;;;0.40;;
8177;SDS011;4130;48.740;9.132;2023-04-24T09:58:29;0.47;;;0.40;;
8177;SDS011;4130;48.740;9.132;2023-04-24T10:00:56;0.40;;;0.40;;
8177;SDS011;4130;48.740;9.132;2023-04-24T10:03:24;0.30;;;0.30;;
8177;SDS011;4130;48.740;9.132;2023-04-24T10:05:54;0.30;;;0.30;;
8177;SDS011;4130;48.740;9.132;2023-04-24T10:08:24;0.57;;;0.57;;
8177;SDS011;4130;48.740;9.132;2023-04-24T10:10:52;0.37;;;0.37;;
8177;SDS011;4130;48.740;9.132;2023-04-24T10:13:20;0.40;;;0.40;;
8177;SDS011;4130;48.740;9.132;2023-04-24T10:15:47;0.55;;;0.40;;
8177;SDS011;4130;48.740;9.132;2023-04-24T10:18:15;0.40;;;0.40;;
8177;SDS011;4130;48.740;9.132;2023-04-24T10:20:42;0.22;;;0.22;;
8177;SDS011;4130;48.740;9.132;2023-04-24T10:23:09;0.40;;;0.40;;
8177;SDS011;4130;48.740;9.132;2023-04-24T10:25:36;0.30;;;0.30;;
8177;SDS011;4130;48.740;9.132;2023-04-24T10:28:03;0.30;;;0.30;;
8177;SDS011;4130;48.740;9.132;2023-04-24T10:30:33;0.40;;;0.40;;
8177;SDS011;4130;48.740;9.132;2023-04-24T10:33:01;0.70;;;0.45;;
8177;SDS011;4130;48.740;9.132;2023-04-24T10:35:30;0.47;;;0.47;;
8177;SDS011;4130;48.740;9.132;2023-04-24T10:37:59;0.50;;;0.40;;
8177;SDS011;4130;48.740;9.132;2023-04-24T10:40:30;0.40;;;0.40;;
8177;SDS011;4130;48.740;9.132;2023-04-24T10:42:58;0.17;;;0.17;;
8177;SDS011;4130;48.740;9.132;2023-04-24T10:45:28;0.47;;;0.47;;
8177;SDS011;4130;48.740;9.132;2023-04-24T10:47:59;0.50;;;0.50;;
8177;SDS011;4130;48.740;9.132;2023-04-24T10:50:28;0.30;;;0.30;;
8177;SDS011;4130;48.740;9.132;2023-04-24T10:53:04;1.27;;;0.47;;
8177;SDS011;4130;48.740;9.132;2023-04-24T10:55:39;0.33;;;0.33;;
8177;SDS011;4130;48.740;9.132;2023-04-24T10:58:08;0.30;;;0.30;;
8177;SDS011;4130;48.740;9.132;2023-04-24T11:00:36;0.83;;;0.47;;
8177;SDS011;4130;48.740;9.132;2023-04-24T11:03:05;0.47;;;0.40;;
8177;SDS011;4130;48.740;9.132;2023-04-24T11:08:26;0.57;;;0.57;;
8177;SDS011;4130;48.740;9.132;2023-04-24T11:10:55;0.30;;;0.30;;
8177;SDS011;4130;48.740;9.132;2023-04-24T11:13:24;0.40;;;0.40;;
8177;SDS011;4130;48.740;9.132;2023-04-24T11:18:43;0.50;;;0.50;;
8177;SDS011;4130;48.740;9.132;2023-04-24T11:21:15;0.30;;;0.30;;
8177;SDS011;4130;48.740;9.132;2023-04-24T11:23:43;0.80;;;0.67;;
8177;SDS011;4130;48.740;9.132;2023-04-24T11:26:11;0.60;;;0.60;;
8177;SDS011;4130;48.740;9.132;2023-04-24T11:28:43;0.50;;;0.50;;
8177;SDS011;4130;48.740;9.132;2023-04-24T11:34:06;0.40;;;0.40;;
8177;SDS011;4130;48.740;9.132;2023-04-24T11:36:34;0.50;;;0.50;;
8177;SDS011;4130;48.740;9.132;2023-04-24T11:39:01;0.70;;;0.47;;
8177;SDS011;4130;48.740;9.132;2023-04-24T11:41:28;1.37;;;0.60;;
8177;SDS011;4130;48.740;9.132;2023-04-24T11:43:55;0.40;;;0.40;;
8177;SDS011;4130;48.740;9.132;2023-04-24T11:46:23;0.60;;;0.60;;
8177;SDS011;4130;48.740;9.132;2023-04-24T11:48:52;0.57;;;0.57;;
8177;SDS011;4130;48.740;9.132;2023-04-24T11:51:21;0.40;;;0.40;;
8177;SDS011;4130;48.740;9.132;2023-04-24T11:53:48;0.57;;;0.57;;
8177;SDS011;4130;48.740;9.132;2023-04-24T11:56:17;0.40;;;0.40;;
8177;SDS011;4130;48.740;9.132;2023-04-24T11:58:45;0.47;;;0.47;;
8177;SDS011;4130;48.740;9.132;2023-04-24T12:01:12;0.40;;;0.40;;
8177;SDS011;4130;48.740;9.132;2023-04-24T12:03:39;0.53;;;0.53;;
8177;SDS011;4130;48.740;9.132;2023-04-24T12:06:08;0.50;;;0.50;;
8177;SDS011;4130;48.740;9.132;2023-04-24T12:08:38;0.50;;;0.50;;
8177;SDS011;4130;48.740;9.132;2023-04-24T12:11:05;0.60;;;0.60;;
8177;SDS011;4130;48.740;9.132;2023-04-24T12:13:33;0.80;;;0.50;;
8177;SDS011;4130;48.740;9.132;2023-04-24T12:16:01;0.53;;;0.53;;
8177;SDS011;4130;48.740;9.132;2023-04-24T12:18:29;0.47;;;0.47;;
8177;SDS011;4130;48.740;9.132;2023-04-24T12:23:43;0.80;;;0.80;;
8177;SDS011;4130;48.740;9.132;2023-04-24T12:26:11;0.43;;;0.43;;
8177;SDS011;4130;48.740;9.132;2023-04-24T12:28:38;0.60;;;0.60;;
8177;SDS011;4130;48.740;9.132;2023-04-24T12:31:05;0.73;;;0.73;;
8177;SDS011;4130;48.740;9.132;2023-04-24T12:33:33;0.40;;;0.40;;
8177;SDS011;4130;48.740;9.132;2023-04-24T12:36:01;0.57;;;0.57;;
8177;SDS011;4130;48.740;9.132;2023-04-24T12:38:28;1.03;;;0.80;;
8177;SDS011;4130;48.740;9.132;2023-04-24T12:41:03;0.40;;;0.40;;
8177;SDS011;4130;48.740;9.132;2023-04-24T12:43:31;0.40;;;0.40;;
8177;SDS011;4130;48.740;9.132;2023-04-24T12:45:58;0.60;;;0.60;;
8177;SDS011;4130;48.740;9.132;2023-04-24T12:48:25;0.47;;;0.47;;
8177;SDS011;4130;48.740;9.132;2023-04-24T12:50:51;0.57;;;0.57;;
8177;SDS011;4130;48.740;9.132;2023-04-24T12:53:18;0.63;;;0.63;;
8177;SDS011;4130;48.740;9.132;2023-04-24T12:55:45;0.60;;;0.60;;
8177;SDS011;4130;48.740;9.132;2023-04-24T12:58:19;0.37;;;0.33;;
8177;SDS011;4130;48.740;9.132;2023-04-24T13:00:46;1.00;;;0.57;;
8177;SDS011;4130;48.740;9.132;2023-04-24T13:03:13;0.47;;;0.47;;
8177;SDS011;4130;48.740;9.132;2023-04-24T13:05:41;0.83;;;0.50;;
8177;SDS011;4130;48.740;9.132;2023-04-24T13:08:08;0.30;;;0.30;;
8177;SDS011;4130;48.740;9.132;2023-04-24T13:10:35;0.60;;;0.60;;
8177;SDS011;4130;48.740;9.132;2023-04-24T13:13:02;0.63;;;0.63;;
8177;SDS011;4130;48.740;9.132;2023-04-24T13:15:30;0.73;;;0.73;;
8177;SDS011;4130;48.740;9.132;2023-04-24T13:17:57;0.77;;;0.70;;
8177;SDS011;4130;48.740;9.132;2023-04-24T13:20:24;0.60;;;0.60;;
8177;SDS011;4130;48.740;9.132;2023-04-24T13:22:51;0.70;;;0.70;;
8177;SDS011;4130;48.740;9.132;2023-04-24T13:25:17;0.73;;;0.50;;
8177;SDS011;4130;48.740;9.132;2023-04-24T13:27:45;0.50;;;0.50;;
8177;SDS011;4130;48.740;9.132;2023-04-24T13:30:12;0.50;;;0.50;;
8177;SDS011;4130;48.740;9.132;2023-04-24T13:32:40;0.70;;;0.70;;
8177;SDS011;4130;48.740;9.132;2023-04-24T13:35:07;0.53;;;0.53;;
8177;SDS011;4130;48.740;9.132;2023-04-24T13:37:34;0.80;;;0.80;;
8177;SDS011;4130;48.740;9.132;2023-04-24T13:40:01;0.50;;;0.50;;
8177;SDS011;4130;48.740;9.132;2023-04-24T13:42:30;0.57;;;0.57;;
8177;SDS011;4130;48.740;9.132;2023-04-24T13:44:58;0.43;;;0.43;;
8177;SDS011;4130;48.740;9.132;2023-04-24T13:47:25;0.60;;;0.60;;
8177;SDS011;4130;48.740;9.132;2023-04-24T13:49:53;0.47;;;0.47;;
8177;SDS011;4130;48.740;9.132;2023-04-24T13:52:20;0.50;;;0.50;;
8177;SDS011;4130;48.740;9.132;2023-04-24T13:54:46;3.53;;;0.60;;
8177;SDS011;4130;48.740;9.132;2023-04-24T13:57:13;0.63;;;0.63;;
8177;SDS011;4130;48.740;9.132;2023-04-24T13:59:41;1.03;;;0.70;;
8177;SDS011;4130;48.740;9.132;2023-04-24T14:02:08;0.90;;;0.90;;
8177;SDS011;4130;48.740;9.132;2023-04-24T14:04:34;0.70;;;0.70;;
8177;SDS011;4130;48.740;9.132;2023-04-24T14:07:02;0.50;;;0.50;;
8177;SDS011;4130;48.740;9.132;2023-04-24T14:09:29;0.57;;;0.57;;
8177;SDS011;4130;48.740;9.132;2023-04-24T14:11:56;0.83;;;0.80;;
8177;SDS011;4130;48.740;9.132;2023-04-24T14:14:23;0.73;;;0.73;;
8177;SDS011;4130;48.740;9.132;2023-04-24T14:16:49;0.80;;;0.80;;
8177;SDS011;4130;48.740;9.132;2023-04-24T14:19:16;0.90;;;0.90;;
8177;SDS011;4130;48.740;9.132;2023-04-24T14:21:43;0.67;;;0.67;;
8177;SDS011;4130;48.740;9.132;2023-04-24T14:24:11;0.73;;;0.73;;
8177;SDS011;4130;48.740;9.132;2023-04-24T14:26:38;1.80;;;0.80;;
8177;SDS011;4130;48.740;9.132;2023-04-24T14:29:05;1.10;;;0.70;;
8177;SDS011;4130;48.740;9.132;2023-04-24T14:31:32;1.00;;;0.90;;
8177;SDS011;4130;48.740;9.132;2023-04-24T14:33:59;0.63;;;0.63;;
8177;SDS011;4130;48.740;9.132;2023-04-24T14:36:26;0.77;;;0.67;;
8177;SDS011;4130;48.740;9.132;2023-04-24T14:38:53;0.47;;;0.47;;
8177;SDS011;4130;48.740;9.132;2023-04-24T14:41:21;0.80;;;0.80;;
8177;SDS011;4130;48.740;9.132;2023-04-24T14:43:48;1.10;;;0.80;;
8177;SDS011;4130;48.740;9.132;2023-04-24T14:46:14;0.77;;;0.77;;
8177;SDS011;4130;48.740;9.132;2023-04-24T14:48:41;0.80;;;0.80;;
8177;SDS011;4130;48.740;9.132;2023-04-24T14:51:08;0.77;;;0.77;;
8177;SDS011;4130;48.740;9.132;2023-04-24T14:53:35;0.90;;;0.90;;
8177;SDS011;4130;48.740;9.132;2023-04-24T14:56:02;0.83;;;0.83;;
8177;SDS011;4130;48.740;9.132;2023-04-24T14:58:30;0.60;;;0.60;;
8177;SDS011;4130;48.740;9.132;2023-04-24T15:00:56;0.73;;;0.73;;
8177;SDS011;4130;48.740;9.132;2023-04-24T15:03:23;0.53;;;0.53;;
8177;SDS011;4130;48.740;9.132;2023-04-24T15:05:51;0.80;;;0.80;;
8177;SDS011;4130;48.740;9.132;2023-04-24T15:08:18;1.90;;;0.87;;
8177;SDS011;4130;48.740;9.132;2023-04-24T15:10:45;0.70;;;0.70;;
8177;SDS011;4130;48.740;9.132;2023-04-24T15:13:12;1.13;;;0.83;;
8177;SDS011;4130;48.740;9.132;2023-04-24T15:18:24;0.73;;;0.73;;
8177;SDS011;4130;48.740;9.132;2023-04-24T15:20:52;0.80;;;0.80;;
8177;SDS011;4130;48.740;9.132;2023-04-24T15:23:19;0.67;;;0.67;;
8177;SDS011;4130;48.740;9.132;2023-04-24T15:25:46;1.00;;;1.00;;
8177;SDS011;4130;48.740;9.132;2023-04-24T15:28:13;1.27;;;1.20;;
8177;SDS011;4130;48.740;9.132;2023-04-24T15:30:41;1.00;;;0.90;;